createdAt,value
2022-11-30T00:01:21.824Z,6.60
2022-11-30T00:03:53.053Z,6.60
2022-11-30T00:06:25.886Z,6.60
2022-11-30T00:08:57.839Z,6.60
2022-11-30T00:11:28.566Z,6.60
2022-11-30T00:13:55.883Z,6.60
2022-11-30T00:16:22.947Z,6.60
2022-11-30T00:18:50.624Z,6.60
2022-11-30T00:21:17.596Z,6.60
2022-11-30T00:23:47.282Z,6.60
2022-11-30T00:26:18.060Z,6.60
2022-11-30T00:28:48.176Z,6.60
2022-11-30T00:36:43.939Z,6.60
2022-11-30T00:39:10.707Z,6.60
2022-11-30T00:41:37.545Z,6.60
2022-11-30T00:44:04.391Z,6.60
2022-11-30T00:46:31.225Z,6.60
2022-11-30T00:48:58.047Z,6.60
2022-11-30T00:51:24.856Z,6.60
2022-11-30T00:53:51.678Z,6.60
2022-11-30T00:56:18.510Z,6.60
2022-11-30T00:58:45.399Z,6.60
2022-11-30T01:01:12.279Z,6.60
2022-11-30T01:03:39.237Z,6.60
2022-11-30T01:06:10.018Z,6.60
2022-11-30T01:08:36.760Z,6.60
2022-11-30T01:11:14.974Z,6.60
2022-11-30T01:13:41.914Z,6.50
2022-11-30T01:16:13.063Z,6.50
2022-11-30T01:18:40.084Z,6.50
2022-11-30T01:21:10.073Z,6.50
2022-11-30T01:23:37.287Z,6.40
2022-11-30T01:26:04.097Z,6.40
2022-11-30T01:28:30.895Z,6.40
2022-11-30T01:31:08.488Z,6.50
2022-11-30T01:33:36.200Z,6.40
2022-11-30T01:36:07.741Z,6.40
2022-11-30T01:38:46.751Z,6.40
2022-11-30T01:41:18.769Z,6.40
2022-11-30T01:44:07.109Z,6.40
2022-11-30T01:46:54.752Z,6.40
2022-11-30T01:49:39.364Z,6.40
2022-11-30T01:52:27.710Z,6.40
2022-11-30T01:55:20.386Z,6.40
2022-11-30T01:57:59.926Z,6.40
2022-11-30T02:00:26.963Z,6.40
2022-11-30T02:03:42.250Z,6.40
2022-11-30T02:06:09.981Z,6.40
2022-11-30T02:08:36.931Z,6.40
2022-11-30T02:11:12.509Z,6.40
2022-11-30T02:14:01.380Z,6.50
2022-11-30T02:17:14.711Z,6.40
2022-11-30T02:20:33.107Z,6.40
2022-11-30T02:23:26.851Z,6.40
2022-11-30T02:26:42.190Z,6.40
2022-11-30T02:29:31.002Z,6.40
2022-11-30T02:32:12.167Z,6.40
2022-11-30T02:34:42.182Z,6.30
2022-11-30T02:37:13.238Z,6.40
2022-11-30T02:39:40.154Z,6.30
2022-11-30T02:42:13.178Z,6.30
2022-11-30T02:44:51.370Z,6.40
2022-11-30T02:47:31.106Z,6.30
2022-11-30T02:50:25.777Z,6.30
2022-11-30T02:52:53.902Z,6.30
2022-11-30T02:55:21.120Z,6.30
2022-11-30T02:57:48.111Z,6.30
2022-11-30T03:00:16.156Z,6.30
2022-11-30T03:02:43.064Z,6.30
2022-11-30T03:05:10.713Z,6.40
2022-11-30T03:07:38.079Z,6.30
2022-11-30T03:10:06.704Z,6.40
2022-11-30T03:12:33.914Z,6.40
2022-11-30T03:15:01.072Z,6.40
2022-11-30T03:17:27.982Z,6.40
2022-11-30T03:19:54.786Z,6.50
2022-11-30T03:22:21.655Z,6.50
2022-11-30T03:24:48.770Z,6.50
2022-11-30T03:27:15.841Z,6.60
2022-11-30T03:29:42.671Z,6.60
2022-11-30T03:32:09.470Z,6.70
2022-11-30T03:34:36.278Z,6.70
2022-11-30T03:37:03.311Z,6.70
2022-11-30T03:39:30.225Z,6.70
2022-11-30T03:41:57.063Z,6.60
2022-11-30T03:44:24.012Z,6.70
2022-11-30T03:46:50.858Z,6.70
2022-11-30T03:49:17.818Z,6.70
2022-11-30T03:51:44.681Z,6.70
2022-11-30T03:54:11.514Z,6.80
2022-11-30T03:56:38.356Z,6.80
2022-11-30T03:59:05.219Z,6.80
2022-11-30T04:01:32.551Z,6.80
2022-11-30T04:03:59.405Z,6.80
2022-11-30T04:06:26.258Z,6.80
2022-11-30T04:08:53.165Z,6.80
2022-11-30T04:11:20.024Z,6.80
2022-11-30T04:13:46.879Z,6.80
2022-11-30T04:16:13.826Z,6.90
2022-11-30T04:18:40.877Z,6.80
2022-11-30T04:21:08.935Z,6.80
2022-11-30T04:23:39.344Z,6.90
2022-11-30T04:26:11.409Z,6.80
2022-11-30T04:28:38.360Z,6.80
2022-11-30T04:31:05.627Z,6.90
2022-11-30T04:33:32.502Z,6.80
2022-11-30T04:36:03.115Z,6.90
2022-11-30T04:38:30.895Z,6.80
2022-11-30T04:40:57.811Z,6.80
2022-11-30T04:43:25.591Z,6.90
2022-11-30T04:45:52.430Z,6.80
2022-11-30T04:48:20.252Z,6.90
2022-11-30T04:50:47.091Z,6.80
2022-11-30T04:53:13.920Z,6.90
2022-11-30T04:55:40.839Z,6.90
2022-11-30T04:58:08.015Z,6.90
2022-11-30T05:00:36.166Z,6.90
2022-11-30T05:03:03.322Z,6.90
2022-11-30T05:05:30.229Z,6.90
2022-11-30T05:07:59.646Z,6.80
2022-11-30T05:10:28.371Z,6.90
2022-11-30T05:12:55.355Z,6.90
2022-11-30T05:15:22.484Z,6.90
2022-11-30T05:17:49.498Z,6.90
2022-11-30T05:20:16.547Z,6.90
2022-11-30T05:22:43.466Z,6.80
2022-11-30T05:25:10.566Z,6.80
2022-11-30T05:27:38.252Z,6.90
2022-11-30T05:30:06.598Z,6.90
2022-11-30T05:32:33.576Z,6.80
2022-11-30T05:35:00.374Z,6.90
2022-11-30T05:37:27.388Z,6.80
2022-11-30T05:39:54.260Z,6.90
2022-11-30T05:42:21.553Z,6.80
2022-11-30T05:44:48.704Z,6.80
2022-11-30T05:47:16.300Z,6.90
2022-11-30T05:49:43.406Z,6.80
2022-11-30T05:52:10.327Z,6.80
2022-11-30T05:54:37.179Z,6.80
2022-11-30T05:57:05.306Z,6.80
2022-11-30T05:59:32.311Z,6.90
2022-11-30T06:01:59.543Z,6.80
2022-11-30T06:04:26.546Z,6.80
2022-11-30T06:06:55.611Z,6.80
2022-11-30T06:09:23.521Z,6.80
2022-11-30T06:11:51.079Z,6.80
2022-11-30T06:14:17.970Z,6.70
2022-11-30T06:16:45.064Z,6.70
2022-11-30T06:19:12.182Z,6.70
2022-11-30T06:21:39.015Z,6.70
2022-11-30T06:24:06.354Z,6.70
2022-11-30T06:26:33.206Z,6.70
2022-11-30T06:29:00.079Z,6.70
2022-11-30T06:31:27.129Z,6.70
2022-11-30T06:33:57.936Z,6.70
2022-11-30T06:36:25.084Z,6.70
2022-11-30T06:38:52.628Z,6.70
2022-11-30T06:41:22.782Z,6.70
2022-11-30T06:43:50.042Z,6.70
2022-11-30T06:46:16.930Z,6.80
2022-11-30T06:48:43.757Z,6.80
2022-11-30T06:51:11.066Z,6.80
2022-11-30T06:53:38.123Z,6.80
2022-11-30T06:56:10.669Z,6.90
2022-11-30T06:58:39.868Z,6.80
2022-11-30T07:01:10.100Z,6.90
2022-11-30T07:03:37.573Z,6.90
2022-11-30T07:06:13.584Z,6.90
2022-11-30T07:08:42.267Z,6.80
2022-11-30T07:11:11.626Z,6.90
2022-11-30T07:13:39.077Z,6.80
2022-11-30T07:16:10.506Z,6.90
2022-11-30T07:18:37.540Z,6.90
2022-11-30T07:21:05.698Z,6.90
2022-11-30T07:23:55.823Z,6.90
2022-11-30T07:26:25.494Z,6.90
2022-11-30T07:28:55.178Z,6.90
2022-11-30T07:31:28.359Z,6.90
2022-11-30T07:33:56.932Z,6.90
2022-11-30T07:36:26.874Z,6.90
2022-11-30T07:38:53.681Z,6.90
2022-11-30T07:41:20.469Z,6.90
2022-11-30T07:43:47.315Z,6.90
2022-11-30T07:46:16.245Z,6.90
2022-11-30T07:48:44.985Z,6.90
2022-11-30T07:51:23.223Z,7.00
2022-11-30T07:53:50.578Z,7.00
2022-11-30T07:56:20.328Z,7.00
2022-11-30T07:58:49.434Z,7.10
2022-11-30T08:01:21.786Z,7.10
2022-11-30T08:03:50.478Z,7.10
2022-11-30T08:06:27.492Z,7.10
2022-11-30T08:08:59.187Z,7.10
2022-11-30T08:11:33.845Z,7.10
2022-11-30T08:14:02.316Z,7.10
2022-11-30T08:16:34.310Z,7.10
2022-11-30T08:19:01.186Z,7.10
2022-11-30T08:21:28.039Z,7.10
2022-11-30T08:23:56.887Z,7.10
2022-11-30T08:26:33.727Z,7.30
2022-11-30T08:29:01.650Z,7.20
2022-11-30T08:31:36.152Z,7.30
2022-11-30T08:34:09.437Z,7.30
2022-11-30T08:36:36.725Z,7.40
2022-11-30T08:39:06.016Z,7.40
2022-11-30T08:41:34.886Z,7.50
2022-11-30T08:44:02.320Z,7.50
2022-11-30T08:52:18.939Z,7.60
2022-11-30T08:54:48.594Z,7.60
2022-11-30T08:57:21.309Z,7.50
2022-11-30T08:59:48.746Z,7.50
2022-11-30T09:02:19.530Z,7.50
2022-11-30T09:04:49.455Z,7.50
2022-11-30T09:07:16.846Z,7.60
2022-11-30T09:09:43.662Z,7.60
2022-11-30T09:12:10.459Z,7.60
2022-11-30T09:14:37.439Z,7.60
2022-11-30T09:17:04.777Z,7.60
2022-11-30T09:19:31.599Z,7.70
2022-11-30T09:21:58.351Z,7.70
2022-11-30T09:24:25.408Z,7.70
2022-11-30T09:26:56.946Z,7.80
2022-11-30T09:29:24.321Z,7.80
2022-11-30T09:31:51.103Z,7.90
2022-11-30T09:34:17.965Z,7.90
2022-11-30T09:36:44.821Z,8.00
2022-11-30T09:39:12.828Z,8.00
2022-11-30T09:42:41.393Z,8.10
2022-11-30T09:45:23.015Z,8.10
2022-11-30T09:48:04.316Z,8.20
2022-11-30T09:50:41.694Z,8.20
2022-11-30T09:53:43.129Z,8.30
2022-11-30T09:56:31.013Z,8.30
2022-11-30T09:59:14.012Z,8.30
2022-11-30T10:01:45.913Z,8.40
2022-11-30T10:04:27.403Z,8.40
2022-11-30T10:07:26.181Z,8.40
2022-11-30T10:10:32.204Z,8.50
2022-11-30T10:13:34.633Z,8.50
2022-11-30T10:16:36.193Z,8.50
2022-11-30T10:19:50.735Z,8.60
2022-11-30T10:22:27.010Z,8.50
2022-11-30T10:24:59.866Z,8.60
2022-11-30T10:27:40.842Z,8.50
2022-11-30T10:30:39.045Z,8.50
2022-11-30T10:33:20.004Z,8.50
2022-11-30T10:35:50.828Z,8.50
2022-11-30T10:38:40.021Z,8.60
2022-11-30T10:41:21.491Z,8.50
2022-11-30T10:44:03.846Z,8.60
2022-11-30T10:46:42.428Z,8.50
2022-11-30T10:49:18.567Z,8.40
2022-11-30T10:51:54.930Z,8.50
2022-11-30T10:54:23.547Z,8.50
2022-11-30T10:56:50.627Z,8.50
2022-11-30T10:59:27.771Z,8.50
2022-11-30T11:01:54.716Z,8.50
2022-11-30T11:04:25.349Z,8.50
2022-11-30T11:07:08.968Z,8.50
2022-11-30T11:09:39.942Z,8.50
2022-11-30T11:12:26.514Z,8.60
2022-11-30T11:15:19.188Z,8.60
2022-11-30T11:17:46.746Z,8.70
2022-11-30T11:20:35.585Z,8.80
2022-11-30T11:23:04.453Z,8.80
2022-11-30T11:25:37.504Z,8.90
2022-11-30T11:28:16.448Z,8.90
2022-11-30T11:30:43.409Z,8.90
2022-11-30T11:33:13.171Z,8.90
2022-11-30T11:35:56.208Z,8.90
2022-11-30T11:38:49.327Z,8.90
2022-11-30T11:41:29.371Z,8.90
2022-11-30T11:44:04.240Z,8.90
2022-11-30T11:46:34.410Z,8.90
2022-11-30T11:49:07.749Z,8.90
2022-11-30T11:51:38.073Z,8.90
2022-11-30T11:54:41.406Z,8.90
2022-11-30T11:57:15.396Z,8.80
2022-11-30T11:59:52.136Z,8.80
2022-11-30T12:02:46.562Z,8.80
2022-11-30T12:05:27.025Z,8.80
2022-11-30T12:08:33.506Z,8.80
2022-11-30T12:11:18.474Z,8.80
2022-11-30T12:13:47.456Z,8.80
2022-11-30T12:16:26.464Z,8.80
2022-11-30T12:19:11.176Z,8.80
2022-11-30T12:22:02.028Z,8.80
2022-11-30T12:25:20.901Z,8.80
2022-11-30T12:28:15.687Z,8.80
2022-11-30T12:31:18.015Z,8.80
2022-11-30T12:34:07.615Z,8.80
2022-11-30T12:37:04.715Z,8.80
2022-11-30T12:39:50.103Z,8.80
2022-11-30T12:42:54.517Z,8.80
2022-11-30T12:45:47.283Z,8.90
2022-11-30T12:48:29.098Z,8.90
2022-11-30T12:51:12.815Z,8.90
2022-11-30T12:53:53.251Z,9.00
2022-11-30T12:56:42.891Z,9.00
2022-11-30T12:59:35.199Z,9.10
2022-11-30T13:02:43.418Z,9.10
2022-11-30T13:05:29.657Z,9.10
2022-11-30T13:08:08.966Z,9.10
2022-11-30T13:10:44.332Z,9.10
2022-11-30T13:13:21.648Z,9.10
2022-11-30T13:15:49.783Z,9.10
2022-11-30T13:18:21.195Z,9.10
2022-11-30T13:21:19.008Z,9.10
2022-11-30T13:24:11.736Z,9.20
2022-11-30T13:26:55.890Z,9.20
2022-11-30T13:29:56.773Z,9.20
2022-11-30T13:35:29.000Z,9.10
2022-11-30T13:38:36.459Z,9.10
2022-11-30T13:41:08.369Z,9.00
2022-11-30T13:43:50.008Z,9.00
2022-11-30T13:46:23.627Z,9.00
2022-11-30T13:49:18.509Z,8.90
2022-11-30T13:51:45.371Z,8.90
2022-11-30T13:54:46.085Z,8.80
2022-11-30T13:57:25.115Z,8.80
2022-11-30T13:59:57.234Z,8.80
2022-11-30T14:02:41.812Z,8.70
2022-11-30T14:05:20.248Z,8.70
2022-11-30T14:08:07.182Z,8.60
2022-11-30T14:10:39.084Z,8.60
2022-11-30T14:13:31.083Z,8.50
2022-11-30T14:16:01.589Z,8.50
2022-11-30T14:18:43.877Z,8.50
2022-11-30T14:21:22.142Z,8.50
2022-11-30T14:24:19.305Z,8.40
2022-11-30T14:26:51.691Z,8.40
2022-11-30T14:29:39.429Z,8.40
2022-11-30T14:32:26.608Z,8.30
2022-11-30T14:35:14.287Z,8.30
2022-11-30T14:37:46.942Z,8.20
2022-11-30T14:40:20.216Z,8.20
2022-11-30T14:42:55.691Z,8.20
2022-11-30T14:45:30.595Z,8.20
2022-11-30T14:48:13.875Z,8.10
2022-11-30T14:51:03.887Z,8.10
2022-11-30T14:53:51.700Z,8.00
2022-11-30T14:56:48.133Z,8.00
2022-11-30T14:59:35.759Z,8.00
2022-11-30T15:02:11.925Z,8.00
2022-11-30T15:04:38.802Z,7.90
2022-11-30T15:07:15.115Z,7.80
2022-11-30T15:09:47.740Z,7.80
2022-11-30T15:12:24.778Z,7.70
2022-11-30T15:15:14.388Z,7.70
2022-11-30T15:18:16.276Z,7.60
2022-11-30T15:20:54.423Z,7.60
2022-11-30T15:23:21.621Z,7.60
2022-11-30T15:26:21.289Z,7.50
2022-11-30T15:29:01.299Z,7.50
2022-11-30T15:31:36.365Z,7.50
2022-11-30T15:34:04.470Z,7.50
2022-11-30T15:36:39.410Z,7.40
2022-11-30T15:39:14.832Z,7.40
2022-11-30T15:41:41.957Z,7.40
2022-11-30T15:44:25.495Z,7.50
2022-11-30T15:47:02.508Z,7.30
2022-11-30T15:49:32.666Z,7.30
2022-11-30T15:52:03.070Z,7.30
2022-11-30T15:54:47.545Z,7.30
2022-11-30T15:57:16.912Z,7.30
2022-11-30T15:59:44.284Z,7.20
2022-11-30T16:02:33.379Z,7.20
2022-11-30T16:05:14.116Z,7.20
2022-11-30T16:08:06.242Z,7.10
2022-11-30T16:10:39.239Z,7.10
2022-11-30T16:13:06.793Z,7.10
2022-11-30T16:15:36.824Z,7.10
2022-11-30T16:18:20.283Z,7.00
2022-11-30T16:20:52.278Z,7.00
2022-11-30T16:23:20.636Z,7.00
2022-11-30T16:25:52.284Z,7.00
2022-11-30T16:28:21.254Z,6.90
2022-11-30T16:30:49.770Z,6.90
2022-11-30T16:33:24.498Z,6.90
2022-11-30T16:36:20.629Z,6.90
2022-11-30T16:38:49.960Z,6.90
2022-11-30T16:41:24.022Z,6.90
2022-11-30T16:43:54.546Z,6.90
2022-11-30T16:46:25.153Z,6.80
2022-11-30T16:48:52.423Z,6.90
2022-11-30T16:51:27.672Z,6.90
2022-11-30T16:53:55.567Z,6.90
2022-11-30T16:56:23.304Z,6.90
2022-11-30T16:58:50.589Z,6.90
2022-11-30T17:01:38.249Z,6.90
2022-11-30T17:04:16.574Z,6.90
2022-11-30T17:06:48.221Z,6.90
2022-11-30T17:09:18.031Z,6.90
2022-11-30T17:11:50.356Z,6.90
2022-11-30T17:14:19.481Z,6.90
2022-11-30T17:16:46.481Z,6.90
2022-11-30T17:19:13.426Z,6.90
2022-11-30T17:21:42.226Z,6.80
2022-11-30T17:24:09.413Z,6.80
2022-11-30T17:26:36.317Z,6.80
2022-11-30T17:29:03.689Z,6.80
2022-11-30T17:31:30.651Z,6.80
2022-11-30T17:33:57.533Z,6.80
2022-11-30T17:36:24.489Z,6.80
2022-11-30T17:38:54.303Z,6.80
2022-11-30T17:41:22.383Z,6.80
2022-11-30T17:43:49.705Z,6.80
2022-11-30T17:46:18.813Z,6.80
2022-11-30T17:48:45.832Z,6.80
2022-11-30T17:51:13.587Z,6.80
2022-11-30T17:53:42.774Z,6.80
2022-11-30T17:56:16.053Z,6.70
2022-11-30T17:58:45.443Z,6.70
2022-11-30T18:01:24.172Z,6.70
2022-11-30T18:03:54.863Z,6.70
2022-11-30T18:06:22.203Z,6.70
2022-11-30T18:08:49.334Z,6.70
2022-11-30T18:11:23.636Z,6.70
2022-11-30T18:13:53.548Z,6.60
2022-11-30T18:16:33.329Z,6.70
2022-11-30T18:19:00.478Z,6.70
2022-11-30T18:21:32.715Z,6.70
2022-11-30T18:23:59.657Z,6.60
2022-11-30T18:26:27.355Z,6.70
2022-11-30T18:28:58.300Z,6.70
2022-11-30T18:31:27.836Z,6.60
2022-11-30T18:33:57.531Z,6.70
2022-11-30T18:36:25.777Z,6.70
2022-11-30T18:38:52.798Z,6.70
2022-11-30T18:41:20.200Z,6.70
2022-11-30T18:43:47.059Z,6.70
2022-11-30T18:46:14.513Z,6.70
2022-11-30T18:48:42.013Z,6.70
2022-11-30T18:51:24.855Z,6.70
2022-11-30T18:54:04.202Z,6.70
2022-11-30T18:56:35.174Z,6.70
2022-11-30T18:59:10.214Z,6.80
2022-11-30T19:01:37.292Z,6.70
2022-11-30T19:04:08.517Z,6.70
2022-11-30T19:06:37.653Z,6.70
2022-11-30T19:09:13.551Z,6.70
2022-11-30T19:11:43.782Z,6.70
2022-11-30T19:14:14.624Z,6.70
2022-11-30T19:16:41.847Z,6.80
2022-11-30T19:19:13.958Z,6.80
2022-11-30T19:21:44.502Z,6.80
2022-11-30T19:24:11.286Z,6.70
2022-11-30T19:26:40.104Z,6.80
2022-11-30T19:29:07.995Z,6.70
2022-11-30T19:31:34.958Z,6.80
2022-11-30T19:34:07.764Z,6.70
2022-11-30T19:36:37.740Z,6.70
2022-11-30T19:39:04.621Z,6.80
2022-11-30T19:41:31.576Z,6.80
2022-11-30T19:44:03.929Z,6.80
2022-11-30T19:46:33.061Z,6.80
2022-11-30T19:49:01.741Z,6.80
2022-11-30T19:51:30.603Z,6.80
2022-11-30T19:53:59.206Z,6.80
2022-11-30T19:56:28.117Z,6.80
2022-11-30T19:59:01.191Z,6.80
2022-11-30T20:01:31.231Z,6.80
2022-11-30T20:03:58.829Z,6.80
2022-11-30T20:06:32.883Z,6.80
2022-11-30T20:08:59.848Z,6.80
2022-11-30T20:11:26.837Z,6.80
2022-11-30T20:13:53.855Z,6.80
2022-11-30T20:16:23.081Z,6.80
2022-11-30T20:19:03.050Z,6.80
2022-11-30T20:21:34.282Z,6.80
2022-11-30T20:24:06.493Z,6.80
2022-11-30T20:26:40.768Z,6.80
2022-11-30T20:29:12.864Z,6.80
2022-11-30T20:31:40.625Z,6.80
2022-11-30T20:34:08.676Z,6.80
2022-11-30T20:36:36.373Z,6.80
2022-11-30T20:39:04.713Z,6.80
2022-11-30T20:41:32.173Z,6.80
2022-11-30T20:43:59.064Z,6.80
2022-11-30T20:46:30.335Z,6.80
2022-11-30T20:48:58.852Z,6.90
2022-11-30T20:51:33.084Z,6.80
2022-11-30T20:54:03.714Z,6.90
2022-11-30T20:56:30.627Z,6.90
2022-11-30T20:59:02.310Z,6.90
2022-11-30T21:01:29.647Z,6.90
2022-11-30T21:03:56.701Z,6.90
2022-11-30T21:06:23.598Z,6.80
2022-11-30T21:08:50.406Z,6.80
2022-11-30T21:11:20.713Z,6.80
2022-11-30T21:13:50.039Z,6.80
2022-11-30T21:16:24.202Z,6.90
2022-11-30T21:18:54.767Z,6.90
2022-11-30T21:21:24.689Z,6.90
2022-11-30T21:23:52.113Z,6.90
2022-11-30T21:26:18.885Z,6.90
2022-11-30T21:28:47.781Z,6.90
2022-11-30T21:31:15.397Z,6.90
2022-11-30T21:33:45.700Z,6.90
2022-11-30T21:36:19.909Z,6.90
2022-11-30T21:38:46.671Z,6.90
2022-11-30T21:41:14.623Z,6.90
2022-11-30T21:43:42.263Z,6.90
2022-11-30T21:46:17.538Z,6.90
2022-11-30T21:48:48.862Z,6.80
2022-11-30T21:51:23.078Z,6.80
2022-11-30T21:53:57.284Z,6.90
2022-11-30T21:56:28.697Z,6.90
2022-11-30T21:58:57.223Z,6.90
2022-11-30T22:01:40.117Z,6.80
2022-11-30T22:04:10.049Z,6.80
2022-11-30T22:06:39.649Z,6.90
2022-11-30T22:09:13.453Z,6.90
2022-11-30T22:11:42.984Z,6.90
2022-11-30T22:14:16.381Z,6.80
2022-11-30T22:16:44.224Z,6.90
2022-11-30T22:19:11.214Z,6.90
2022-11-30T22:21:38.408Z,6.80
2022-11-30T22:24:10.571Z,6.80
2022-11-30T22:26:40.706Z,6.80
2022-11-30T22:29:14.310Z,6.80
2022-11-30T22:31:45.915Z,6.80
2022-11-30T22:34:13.225Z,6.80
2022-11-30T22:36:43.451Z,6.80
2022-11-30T22:39:13.529Z,6.80
2022-11-30T22:41:43.862Z,6.80
2022-11-30T22:44:17.325Z,6.80
2022-11-30T22:46:45.643Z,6.80
2022-11-30T22:49:20.177Z,6.70
2022-11-30T22:51:48.047Z,6.80
2022-11-30T22:54:15.057Z,6.80
2022-11-30T22:56:42.003Z,6.80
2022-11-30T22:59:12.803Z,6.80
2022-11-30T23:01:45.574Z,6.80
2022-11-30T23:04:17.792Z,6.70
2022-11-30T23:06:47.190Z,6.80
2022-11-30T23:09:21.327Z,6.80
2022-11-30T23:11:49.216Z,6.80
2022-11-30T23:14:16.537Z,6.80
2022-11-30T23:16:44.588Z,6.70
2022-11-30T23:19:12.777Z,6.70
2022-11-30T23:21:44.634Z,6.70
2022-11-30T23:24:20.121Z,6.80
2022-11-30T23:26:48.128Z,6.70
2022-11-30T23:29:16.925Z,6.70
2022-11-30T23:31:45.748Z,6.70
2022-11-30T23:34:21.143Z,6.70
2022-11-30T23:36:49.330Z,6.60
2022-11-30T23:39:19.088Z,6.60
2022-11-30T23:41:46.977Z,6.60
2022-11-30T23:44:13.956Z,6.60
2022-11-30T23:46:41.300Z,6.60
2022-11-30T23:49:08.758Z,6.50
2022-11-30T23:51:35.829Z,6.50
2022-11-30T23:54:02.666Z,6.50
2022-11-30T23:56:29.454Z,6.50
2022-11-30T23:58:56.317Z,6.50
